Flight Track Log - Related Links

Times and Time Zones

All times are in EDT time to prevent confusion due to time zone crossing. See the TAM3812 flight status page for this flight to view local times or setup timezone preferences in your user account.

Time Position Orientation Groundspeed Altitude Reporting Facility
EDT Latitude Longitude Course Direction KTS MPH feet Rate Location/Type
Fri 09:16:02 PM -23.6490 -46.6430 159° South 172 198 3,300  Level FlightAware ADS-B
Fri 09:16:07 PM -23.6530 -46.6420 167° South 179 206 3,400 1,655 Climbing FlightAware ADS-B
Fri 09:16:31 PM -23.6740 -46.6540 208° Southwest 219 252 4,100 1,714 Climbing FlightAware ADS-B
Fri 09:16:35 PM -23.6750 -46.6580 255° West 219 252 4,200 3,000 Climbing FlightAware ADS-B
Fri 09:16:43 PM -23.6770 -46.6670 256° West 216 249 4,700 3,200 Climbing FlightAware ADS-B
Fri 09:17:05 PM -23.6730 -46.6900 281° West 207 238 5,800 2,700 Climbing FlightAware ADS-B
Fri 09:17:23 PM -23.6700 -46.7090 280° West 214 246 6,500 2,429 Climbing FlightAware ADS-B
Fri 09:17:47 PM -23.6660 -46.7350 280° West 218 251 7,500 1,957 Climbing FlightAware ADS-B
Fri 09:18:09 PM -23.6630 -46.7600 277° West 234 269 8,000 1,592 Climbing FlightAware ADS-B
Fri 09:18:36 PM -23.6700 -46.7900 256° West 259 298 8,800 1,826 Climbing FlightAware ADS-B
Fri 09:18:55 PM -23.6800 -46.8160 247° West 284 327 9,400 2,111 Climbing FlightAware ADS-B
Fri 09:19:30 PM -23.6960 -46.8660 251° West 312 359 10,700 1,859 Climbing FlightAware ADS-B
Fri 09:20:06 PM -23.7150 -46.9230 250° West 348 400 11,600 2,031 Climbing FlightAware ADS-B
Fri 09:20:35 PM -23.7280 -46.9710 254° West 351 404 12,900 2,769 Climbing FlightAware ADS-B
Fri 09:20:45 PM -23.7270 -46.9890 273° West 350 403 13,400 2,400 Climbing FlightAware ADS-B
Fri 09:21:10 PM -23.7100 -47.0290 295° West 355 409 14,300 2,308 Climbing FlightAware ADS-B
Fri 09:21:50 PM -23.6740 -47.0900 303° West 366 421 15,900 2,560 Climbing FlightAware ADS-B
Fri 09:22:25 PM -23.6420 -47.1460 302° West 365 420 17,500 2,535 Climbing FlightAware ADS-B
Fri 09:23:01 PM -23.6110 -47.1990 303° West 370 426 18,900 1,606 Climbing FlightAware ADS-B
Fri 09:23:36 PM -23.5770 -47.2590 302° West 399 459 19,400 1,652 Climbing FlightAware ADS-B
Fri 09:24:10 PM -23.5440 -47.3160 302° West 397 457 20,800 1,391 Climbing FlightAware ADS-B
Fri 09:24:45 PM -23.5090 -47.3760 302° West 420 483 21,000 148 Climbing FlightAware ADS-B
Fri 09:25:31 PM -23.4860 -47.4740 284° West 445 512 21,000 1,000 Level FlightAware ADS-B
Fri 09:26:03 PM -23.4730 -47.5480 281° West 433 498 22,300 3,088 Climbing FlightAware ADS-B
Fri 09:26:39 PM -23.4540 -47.6220 286° West 411 473 24,500 3,086 Climbing FlightAware ADS-B
Fri 09:27:13 PM -23.4240 -47.6820 299° West 405 466 25,900 1,859 Climbing FlightAware ADS-B
Fri 09:27:50 PM -23.3910 -47.7490 298° West 412 474 26,700 1,235 Climbing FlightAware ADS-B
Fri 09:28:21 PM -23.3620 -47.8070 299° West 423 487 27,300 1,304 Climbing FlightAware ADS-B
Fri 09:28:59 PM -23.3260 -47.8790 299° West 428 493 28,200 1,417 Climbing FlightAware ADS-B
Fri 09:29:33 PM -23.2930 -47.9410 300° West 433 498 29,000 1,629 Climbing FlightAware ADS-B
Fri 09:30:09 PM -23.2560 -48.0090 301° West 431 496 30,100 1,714 Climbing FlightAware ADS-B
Fri 09:30:43 PM -23.2190 -48.0730 302° West 430 495 31,000 1,913 Climbing FlightAware ADS-B
Fri 09:31:18 PM -23.1830 -48.1340 303° West 417 480 32,300 2,333 Climbing FlightAware ADS-B
Fri 09:31:55 PM -23.1460 -48.1980 302° West 399 459 33,800 2,057 Climbing FlightAware ADS-B
Fri 09:32:28 PM -23.1070 -48.2490 310° West 402 463 34,700 1,565 Climbing FlightAware ADS-B
Fri 09:33:04 PM -23.0600 -48.3010 314° West 393 452 35,600 1,164 Climbing FlightAware ADS-B
Fri 09:33:35 PM -23.0220 -48.3450 313° West 394 453 36,000 343 Climbing FlightAware ADS-B
Fri 09:34:14 PM -22.9740 -48.3990 314° West 392 451 36,000  Level FlightAware ADS-B
Fri 09:34:50 PM -22.9270 -48.4520 314° West 398 458 36,000  Level FlightAware ADS-B
Fri 09:35:22 PM -22.8860 -48.4970 315° West 399 459 36,000 429 Level FlightAware ADS-B
Fri 09:36:00 PM -22.8380 -48.5510 314° West 396 456 36,500 1,135 Climbing FlightAware ADS-B
Fri 09:36:36 PM -22.7920 -48.6030 314° West 388 447 37,400 1,235 Climbing FlightAware ADS-B
Fri 09:37:08 PM -22.7530 -48.6470 314° West 385 443 37,900 522 Climbing FlightAware ADS-B
Fri 09:37:45 PM -22.7080 -48.6970 314° West 384 442 38,000 88 Climbing FlightAware ADS-B
Fri 09:38:16 PM -22.6680 -48.7410 315° West 384 442 38,000  Level FlightAware ADS-B
Fri 09:38:54 PM -22.6220 -48.7930 314° West 385 443 38,000  Level FlightAware ADS-B
Fri 09:39:32 PM -22.5740 -48.8460 314° West 385 443 38,000  Level FlightAware ADS-B
Fri 09:40:18 PM -22.5170 -48.9090 314° West 385 443 38,000  Level FlightAware ADS-B
Fri 09:40:55 PM -22.4700 -48.9620 314° West 386 444 38,000  Level FlightAware ADS-B
Fri 09:41:31 PM -22.4240 -49.0120 315° West 386 444 38,000  Level FlightAware ADS-B
Fri 09:42:04 PM -22.3840 -49.0570 314° West 387 445 38,000  Level FlightAware ADS-B
Fri 09:42:39 PM -22.3420 -49.1040 314° West 388 447 38,000  Level FlightAware ADS-B
Fri 09:43:16 PM -22.2930 -49.1580 314° West 388 447 38,000  Level FlightAware ADS-B
Fri 09:43:49 PM -22.2520 -49.2030 315° West 388 447 38,000  Level FlightAware ADS-B
Fri 09:44:21 PM -22.2110 -49.2490 314° West 388 447 38,000  Level FlightAware ADS-B
Fri 09:45:01 PM -22.1640 -49.3010 314° West 388 447 38,000  Level FlightAware ADS-B
Fri 09:45:33 PM -22.1220 -49.3470 315° West 387 445 38,000  Level FlightAware ADS-B
Fri 09:46:11 PM -22.0750 -49.3980 315° West 387 445 38,000  Level FlightAware ADS-B
Fri 09:46:43 PM -22.0340 -49.4440 314° West 388 447 38,000  Level FlightAware ADS-B
Fri 09:47:21 PM -21.9860 -49.4970 314° West 388 447 38,000  Level FlightAware ADS-B
Fri 09:47:53 PM -21.9470 -49.5390 315° West 388 447 38,000  Level FlightAware ADS-B
Fri 09:48:28 PM -21.9030 -49.5870 315° West 388 447 38,000  Level FlightAware ADS-B
Fri 09:49:05 PM -21.8540 -49.6410 314° West 388 447 38,000  Level FlightAware ADS-B
Fri 09:49:39 PM -21.8120 -49.6880 314° West 387 445 38,000  Level FlightAware ADS-B
Fri 09:50:15 PM -21.7680 -49.7350 315° West 387 445 38,000  Level FlightAware ADS-B
Fri 09:50:49 PM -21.7240 -49.7830 315° West 386 444 38,000  Level FlightAware ADS-B
Fri 09:51:23 PM -21.6840 -49.8270 314° West 386 444 38,000  Level FlightAware ADS-B
Fri 09:52:05 PM -21.6280 -49.8880 315° West 386 444 38,000  Level FlightAware ADS-B
Fri 09:52:41 PM -21.5830 -49.9370 315° West 387 445 38,000  Level FlightAware ADS-B
Fri 09:53:09 PM -21.5480 -49.9760 314° West 387 445 38,000  Level FlightAware ADS-B
Fri 09:53:46 PM -21.5020 -50.0260 315° West 388 447 38,000  Level FlightAware ADS-B
Fri 09:54:21 PM -21.4600 -50.0720 314° West 388 447 38,000  Level FlightAware ADS-B
Fri 09:54:51 PM -21.4190 -50.1160 315° West 388 447 38,000  Level FlightAware ADS-B
Fri 09:55:25 PM -21.3770 -50.1610 315° West 388 447 38,000  Level FlightAware ADS-B
Fri 09:56:03 PM -21.3300 -50.2120 315° West 389 448 38,000  Level FlightAware ADS-B
Fri 09:56:42 PM -21.2800 -50.2670 314° West 390 449 38,000  Level FlightAware ADS-B
Fri 09:57:14 PM -21.2390 -50.3110 315° West 390 449 38,000  Level FlightAware ADS-B
Fri 09:57:49 PM -21.1930 -50.3610 315° West 390 449 38,000  Level FlightAware ADS-B
Fri 09:58:21 PM -21.1540 -50.4030 315° West 389 448 38,000  Level FlightAware ADS-B
Fri 09:59:01 PM -21.1030 -50.4580 315° West 389 448 38,000  Level FlightAware ADS-B
Fri 09:59:35 PM -21.0610 -50.5040 314° West 388 447 38,000  Level FlightAware ADS-B
Fri 10:00:09 PM -21.0160 -50.5520 315° West 389 448 38,000  Level FlightAware ADS-B
Fri 10:00:45 PM -20.9720 -50.5990 315° West 389 448 38,000  Level FlightAware ADS-B
Fri 10:01:32 PM -20.9120 -50.6630 315° West 390 449 38,000  Level FlightAware ADS-B
Fri 10:02:12 PM -20.8650 -50.7140 315° West 392 451 38,000  Level FlightAware ADS-B
Fri 10:02:42 PM -20.8240 -50.7590 314° West 393 452 38,000  Level FlightAware ADS-B
Fri 10:03:17 PM -20.7790 -50.8060 316° Northwest 394 453 38,000  Level FlightAware ADS-B
Fri 10:03:52 PM -20.7340 -50.8550 314° West 394 453 38,000  Level FlightAware ADS-B
Fri 10:04:27 PM -20.6880 -50.9040 315° West 394 453 38,000  Level FlightAware ADS-B
Fri 10:05:04 PM -20.6440 -50.9510 315° West 395 455 38,000  Level FlightAware ADS-B
Fri 10:05:37 PM -20.5990 -50.9990 315° West 395 455 38,000  Level FlightAware ADS-B
Fri 10:06:17 PM -20.5470 -51.0540 315° West 395 455 38,000  Level FlightAware ADS-B
Fri 10:06:47 PM -20.5090 -51.0950 315° West 395 455 38,000  Level FlightAware ADS-B
Fri 10:07:22 PM -20.4670 -51.1400 315° West 395 455 38,000  Level FlightAware ADS-B
Fri 10:07:59 PM -20.4170 -51.1930 315° West 395 455 38,000  Level FlightAware ADS-B
Fri 10:08:36 PM -20.3680 -51.2450 315° West 395 455 38,000  Level FlightAware ADS-B
Fri 10:09:07 PM -20.3240 -51.2920 315° West 395 455 38,000  Level FlightAware ADS-B
Fri 10:09:43 PM -20.2780 -51.3420 314° West 394 453 38,000  Level FlightAware ADS-B
Fri 10:10:27 PM -20.2230 -51.4020 314° West 393 452 38,000  Level FlightAware ADS-B
Fri 10:10:59 PM -20.1810 -51.4470 315° West 395 455 38,000  Level FlightAware ADS-B
Fri 10:11:39 PM -20.1540 -51.4760 315° West 396 456 38,000  Level FlightAware ADS-B
Fri 10:12:09 PM -20.0930 -51.5410 315° West 397 457 38,000  Level FlightAware ADS-B
Fri 10:12:44 PM -20.0480 -51.5900 314° West 397 457 38,000  Level FlightAware ADS-B
Fri 10:13:20 PM -19.9990 -51.6420 315° West 398 458 38,000  Level FlightAware ADS-B
Fri 10:13:55 PM -19.9550 -51.6890 315° West 398 458 38,000  Level FlightAware ADS-B
Fri 10:14:37 PM -19.9040 -51.7440 315° West 398 458 38,000  Level FlightAware ADS-B
Fri 10:15:13 PM -19.8540 -51.7970 315° West 398 458 38,000  Level FlightAware ADS-B
Fri 10:15:49 PM -19.8110 -51.8430 315° West 397 457 38,000  Level FlightAware ADS-B
Fri 10:16:18 PM -19.7750 -51.8810 315° West 397 457 38,000  Level FlightAware ADS-B
Fri 10:17:00 PM -19.7130 -51.9470 315° West 398 458 38,000  Level FlightAware ADS-B
Fri 10:17:31 PM -19.6740 -51.9880 315° West 398 458 38,000  Level FlightAware ADS-B
Fri 10:18:07 PM -19.6260 -52.0390 315° West 398 458 38,000  Level FlightAware ADS-B
Fri 10:18:44 PM -19.5760 -52.0920 315° West 399 459 38,000  Level FlightAware ADS-B
Fri 10:19:18 PM -19.5330 -52.1380 315° West 399 459 38,000  Level FlightAware ADS-B
Fri 10:19:54 PM -19.4870 -52.1870 315° West 398 458 38,000  Level FlightAware ADS-B
Fri 10:20:31 PM -19.4370 -52.2390 316° Northwest 398 458 38,000  Level FlightAware ADS-B
Fri 10:21:02 PM -19.3960 -52.2820 315° West 398 458 38,000  Level FlightAware ADS-B
Fri 10:21:38 PM -19.3500 -52.3320 314° West 398 458 38,000  Level FlightAware ADS-B
Fri 10:22:14 PM -19.3020 -52.3820 315° West 399 459 38,000  Level FlightAware ADS-B
Fri 10:22:48 PM -19.2570 -52.4290 315° West 400 460 38,000  Level FlightAware ADS-B
Fri 10:23:24 PM -19.2110 -52.4780 315° West 400 460 38,000  Level FlightAware ADS-B
Fri 10:24:00 PM -19.1630 -52.5280 315° West 400 460 38,000  Level FlightAware ADS-B
Fri 10:24:32 PM -19.1220 -52.5720 315° West 401 461 38,000  Level FlightAware ADS-B
Fri 10:25:08 PM -19.0740 -52.6220 315° West 401 461 38,000  Level FlightAware ADS-B
Fri 10:25:45 PM -19.0260 -52.6720 315° West 400 460 38,000  Level FlightAware ADS-B
Fri 10:26:12 PM -18.9900 -52.7100 315° West 399 459 38,000  Level FlightAware ADS-B
Fri 10:26:56 PM -18.9320 -52.7700 316° Northwest 399 459 38,000  Level FlightAware ADS-B
Fri 10:27:28 PM -18.8900 -52.8150 315° West 398 458 38,000  Level FlightAware ADS-B
Fri 10:28:04 PM -18.8420 -52.8650 315° West 399 459 38,000  Level FlightAware ADS-B
Fri 10:28:40 PM -18.7960 -52.9130 315° West 398 458 38,000  Level FlightAware ADS-B
Fri 10:29:16 PM -18.7490 -52.9620 315° West 398 458 38,000  Level FlightAware ADS-B
Fri 10:29:48 PM -18.7060 -53.0070 315° West 397 457 38,000  Level FlightAware ADS-B
Fri 10:30:24 PM -18.6600 -53.0550 315° West 396 456 38,000  Level FlightAware ADS-B
Fri 10:30:56 PM -18.6180 -53.0980 316° Northwest 397 457 38,000  Level FlightAware ADS-B
Fri 10:31:34 PM -18.5680 -53.1510 315° West 398 458 38,000  Level FlightAware ADS-B
Fri 10:32:11 PM -18.5210 -53.2000 315° West 398 458 38,000  Level FlightAware ADS-B
Fri 10:32:44 PM -18.4770 -53.2450 316° Northwest 398 458 38,000  Level FlightAware ADS-B
Fri 10:33:20 PM -18.4290 -53.2960 315° West 400 460 38,000  Level FlightAware ADS-B
Fri 10:33:52 PM -18.3870 -53.3390 316° Northwest 399 459 38,000  Level FlightAware ADS-B
Fri 10:34:30 PM -18.3370 -53.3910 315° West 399 459 38,000  Level FlightAware ADS-B
Fri 10:35:04 PM -18.2920 -53.4380 315° West 398 458 38,000  Level FlightAware ADS-B
Fri 10:35:37 PM -18.2500 -53.4810 316° Northwest 397 457 38,000  Level FlightAware ADS-B
Fri 10:36:14 PM -18.2000 -53.5330 315° West 397 457 38,000  Level FlightAware ADS-B
Fri 10:36:50 PM -18.1530 -53.5820 315° West 397 457 38,000  Level FlightAware ADS-B
Fri 10:37:23 PM -18.1110 -53.6250 316° Northwest 396 456 38,000  Level FlightAware ADS-B
Fri 10:37:58 PM -18.0650 -53.6730 315° West 396 456 38,000  Level FlightAware ADS-B
Fri 10:38:34 PM -18.0170 -53.7220 316° Northwest 395 455 38,000  Level FlightAware ADS-B
Fri 10:39:08 PM -17.9760 -53.7650 315° West 395 455 38,000  Level FlightAware ADS-B
Fri 10:39:44 PM -17.9260 -53.8150 316° Northwest 395 455 38,000  Level FlightAware ADS-B
Fri 10:40:16 PM -17.8840 -53.8590 315° West 395 455 38,000  Level FlightAware ADS-B
Fri 10:40:53 PM -17.8360 -53.9080 316° Northwest 397 457 38,000  Level FlightAware ADS-B
Fri 10:41:30 PM -17.7880 -53.9580 315° West 396 456 38,000  Level FlightAware ADS-B
Fri 10:42:02 PM -17.7450 -54.0020 316° Northwest 398 458 38,000  Level FlightAware ADS-B
Fri 10:42:36 PM -17.7000 -54.0480 316° Northwest 398 458 38,000  Level FlightAware ADS-B
Fri 10:43:16 PM -17.6480 -54.1010 316° Northwest 399 459 38,000  Level FlightAware ADS-B
Fri 10:44:01 PM -17.5960 -54.1540 316° Northwest 397 457 38,000  Level FlightAware ADS-B
Fri 10:44:37 PM -17.5430 -54.2090 315° West 398 458 38,000  Level FlightAware ADS-B
Fri 10:45:16 PM -17.4980 -54.2560 315° West 398 458 38,000  Level FlightAware ADS-B
Fri 10:45:52 PM -17.4580 -54.2980 315° West 398 458 38,000  Level FlightAware ADS-B
Fri 10:46:44 PM -17.3800 -54.3770 316° Northwest 398 458 38,000  Level FlightAware ADS-B
Fri 10:47:16 PM -17.3370 -54.4200 316° Northwest 399 459 38,000  Level FlightAware ADS-B
Fri 10:47:54 PM -17.2950 -54.4650 314° West 399 459 38,000  Level FlightAware ADS-B
Fri 10:48:24 PM -17.2430 -54.5160 317° Northwest 398 458 38,000 -74 Level FlightAware ADS-B
Fri 10:49:15 PM -17.1810 -54.5800 315° West 398 458 37,900 -69 Descending FlightAware ADS-B
Fri 10:49:51 PM -17.1410 -54.6210 316° Northwest 398 458 37,900  Level FlightAware ADS-B
Fri 10:50:31 PM -17.0970 -54.6680 314° West 398 458 37,900  Level FlightAware ADS-B
Fri 10:51:08 PM -17.0560 -54.7100 316° Northwest 398 458 37,900  Level FlightAware ADS-B
Fri 10:51:44 PM -17.0160 -54.7520 315° West 398 458 37,900  Level FlightAware ADS-B
Fri 10:52:21 PM -16.9750 -54.7950 315° West 398 458 37,900  Level FlightAware ADS-B
Fri 10:52:57 PM -16.9350 -54.8370 315° West 398 458 37,900  Level FlightAware ADS-B
Fri 10:53:31 PM -16.8970 -54.8760 316° Northwest 398 458 37,900  Level FlightAware ADS-B
Fri 10:54:07 PM -16.8580 -54.9180 314° West 398 458 37,900  Level FlightAware ADS-B
Fri 10:54:43 PM -16.8180 -54.9590 316° Northwest 398 458 37,900  Level FlightAware ADS-B
Fri 10:55:18 PM -16.7790 -55.0000 315° West 398 458 37,900  Level FlightAware ADS-B
Fri 10:55:54 PM -16.7390 -55.0410 316° Northwest 398 458 37,900  Level FlightAware ADS-B
Fri 10:56:31 PM -16.6980 -55.0840 315° West 398 458 37,900  Level FlightAware ADS-B
Fri 10:57:08 PM -16.6570 -55.1270 315° West 398 458 37,900  Level FlightAware ADS-B
Fri 10:57:42 PM -16.6200 -55.1660 315° West 398 458 37,900  Level FlightAware ADS-B
Fri 10:58:18 PM -16.5800 -55.2080 315° West 398 458 37,900  Level FlightAware ADS-B
Fri 11:00:00 PM -16.4407 -55.3454 317° Northwest  Level Estimated
Fri 11:01:00 PM -16.3586 -55.4261 317° Northwest  Level Estimated
Fri 11:02:00 PM -16.2766 -55.5068 317° Northwest  Level Estimated
Fri 11:03:00 PM -16.1945 -55.5874 317° Northwest  Level Estimated
Fri 11:04:00 PM -16.1124 -55.6679 317° Northwest  Level Estimated
Fri 11:05:00 PM -16.0303 -55.7483 317° Northwest  Level Estimated
Fri 11:06:00 PM -15.9481 -55.8287 317° Northwest  Level Estimated
Fri 11:07:00 PM -15.8659 -55.9090 317° Northwest  Level Estimated
Fri 11:08:00 PM -15.7837 -55.9893 317° Northwest  Level Estimated
Fri 11:09:00 PM -15.7014 -56.0695 317° Northwest  Level Estimated
Fri 11:10:00 PM -15.6529 -56.1167 317° Northwest  Level Estimated
Fri 11:11:00 PM -15.6529 -56.1167 136° Southeast  Level Estimated
Fri 11:12:00 PM -15.6529 -56.1167 136° Southeast  Level Estimated
Fri 11:13:00 PM -15.6529 -56.1167 136° Southeast  Level Estimated
Fri 11:14:00 PM -15.6529 -56.1167 136° Southeast  Level Estimated
Fri 11:15:00 PM -15.6529 -56.1167 136° Southeast  Level Estimated
Fri 11:16:00 PM -15.6529 -56.1167 136° Southeast  Level Estimated
Fri 11:17:00 PM -15.6529 -56.1167 136° Southeast  Level Estimated

Login

Don't have an account? Register now (free) for customized features, flight alerts, and more!